Time;durP1;ratioP1;P1;durP2;ratioP2;P2;SDS_P1;SDS_P2;PMS_P1;PMS_P2;Temp;Humidity;BMP_temperature;BMP_pressure;BME280_temperature;BME280_humidity;BME280_pressure;Samples;Min_cycle;Max_cycle;Signal;HPM_P1;HPM_P2
2023/03/13 00:01:28;;;;;;;;;;;;;;;21.53;45.94;99379.72;7255171;19;153864;-54
2023/03/13 00:03:56;;;;;;;;;;;;;;;21.46;46.14;99363.44;7253555;19;153695;-55
2023/03/13 00:06:24;;;;;;;;;;;;;;;21.24;47.02;99367.56;7254230;19;154031;-54
2023/03/13 00:08:53;;;;;;;;;;;;;;;21.27;46.54;99360.41;7248875;19;154171;-55
2023/03/13 00:11:20;;;;;;;;;;;;;;;21.28;46.34;99350.81;7251486;19;153246;-56
2023/03/13 00:13:47;;;;;;;;;;;;;;;21.28;46.75;99345.19;7250919;19;154211;-55
2023/03/13 00:16:15;;;;;;;;;;;;;;;21.29;47.04;99330.00;7266952;19;151871;-54
2023/03/13 00:18:45;;;;;;;;;;;;;;;21.25;47.05;99320.63;7257645;19;154085;-54
2023/03/13 00:21:13;;;;;;;;;;;;;;;21.25;47.10;99320.63;7263032;19;154037;-56
2023/03/13 00:23:40;;;;;;;;;;;;;;;21.21;47.13;99322.50;7258482;19;153849;-54
2023/03/13 00:26:09;;;;;;;;;;;;;;;21.19;47.35;99308.00;7260367;19;153361;-56
2023/03/13 00:28:37;;;;;;;;;;;;;;;21.16;47.44;99289.88;7259581;19;153431;-54
2023/03/13 00:31:05;;;;;;;;;;;;;;;21.16;47.52;99289.88;7257971;19;153395;-54
2023/03/13 00:33:33;;;;;;;;;;;;;;;21.14;47.40;99289.38;7258305;19;155840;-54
2023/03/13 00:36:00;;;;;;;;;;;;;;;21.10;47.57;99290.41;7260991;19;152994;-53
2023/03/13 00:38:28;;;;;;;;;;;;;;;21.10;47.59;99302.47;7267113;19;153003;-54
2023/03/13 00:40:58;;;;;;;;;;;;;;;21.06;47.30;99289.50;7260501;19;154200;-54
2023/03/13 00:43:26;;;;;;;;;;;;;;;21.08;47.50;99295.56;7259265;19;153372;-54
2023/03/13 00:45:53;;;;;;;;;;;;;;;21.04;47.62;99289.81;7258823;19;154243;-54
2023/03/13 00:48:20;;;;;;;;;;;;;;;21.03;47.68;99291.00;7258652;19;153298;-54
2023/03/13 00:50:47;;;;;;;;;;;;;;;21.02;47.61;99275.34;7256737;19;154458;-54
2023/03/13 00:53:14;;;;;;;;;;;;;;;21.01;47.69;99273.69;7259108;19;153243;-54
2023/03/13 00:55:44;;;;;;;;;;;;;;;21.00;47.60;99300.13;7258072;19;153478;-54
2023/03/13 00:58:11;;;;;;;;;;;;;;;20.97;47.66;99288.78;7258847;19;153686;-55
2023/03/13 01:00:38;;;;;;;;;;;;;;;20.92;47.38;99273.00;7265655;19;153638;-54
2023/03/13 01:03:05;;;;;;;;;;;;;;;20.88;47.64;99269.25;7259078;19;153726;-54
2023/03/13 01:05:33;;;;;;;;;;;;;;;20.88;47.67;99297.34;7258698;19;152923;-54
2023/03/13 01:08:00;;;;;;;;;;;;;;;20.85;47.82;99270.75;7259708;19;152714;-55
2023/03/13 01:10:27;;;;;;;;;;;;;;;20.84;48.12;99257.09;7259559;19;153862;-54
2023/03/13 01:12:54;;;;;;;;;;;;;;;20.84;47.99;99243.06;7259572;19;154151;-54
2023/03/13 01:15:21;;;;;;;;;;;;;;;20.84;47.69;99248.69;7260400;19;152384;-54
2023/03/13 01:17:48;;;;;;;;;;;;;;;20.82;47.87;99262.25;7259216;19;154301;-54
2023/03/13 01:20:15;;;;;;;;;;;;;;;20.80;47.86;99273.81;7259590;19;153775;-54
2023/03/13 01:22:42;;;;;;;;;;;;;;;20.80;47.72;99264.59;7267812;19;153719;-54
2023/03/13 01:25:10;;;;;;;;;;;;;;;20.77;48.20;99257.69;7254099;19;154621;-54
2023/03/13 01:27:37;;;;;;;;;;;;;;;20.73;47.93;99273.59;7259961;19;153816;-54
2023/03/13 01:30:04;;;;;;;;;;;;;;;20.74;48.19;99268.78;7260474;19;153438;-55
2023/03/13 01:32:32;;;;;;;;;;;;;;;20.70;48.39;99273.47;7256829;19;153713;-56
2023/03/13 01:34:59;;;;;;;;;;;;;;;20.67;48.08;99265.75;7258983;19;153818;-55
2023/03/13 01:37:26;;;;;;;;;;;;;;;20.65;48.36;99254.88;7259226;19;154161;-57
2023/03/13 01:39:53;;;;;;;;;;;;;;;20.65;48.26;99251.25;7258218;19;154528;-55
2023/03/13 01:42:21;;;;;;;;;;;;;;;20.59;48.66;99278.72;7262373;19;153201;-53
2023/03/13 01:44:51;;;;;;;;;;;;;;;20.57;48.80;99229.75;7265374;19;154358;-56
2023/03/13 01:47:18;;;;;;;;;;;;;;;20.55;48.82;99232.06;7258737;19;153963;-54
2023/03/13 01:49:47;;;;;;;;;;;;;;;20.53;48.75;99223.19;7258031;19;154321;-55
2023/03/13 01:52:16;;;;;;;;;;;;;;;20.50;49.30;99213.47;7255468;19;154111;-54
2023/03/13 01:54:44;;;;;;;;;;;;;;;20.49;49.01;99222.28;7257384;19;154319;-54
2023/03/13 01:57:16;;;;;;;;;;;;;;;20.45;49.03;99216.50;7260079;19;152947;-54
2023/03/13 01:59:47;;;;;;;;;;;;;;;20.44;49.48;99209.28;7259282;19;153958;-55
2023/03/13 02:02:15;;;;;;;;;;;;;;;20.41;49.50;99204.38;7256179;19;153490;-55
2023/03/13 02:04:46;;;;;;;;;;;;;;;20.39;49.24;99195.50;7257745;19;154798;-55
2023/03/13 02:07:16;;;;;;;;;;;;;;;20.35;49.36;99192.53;7264727;19;155002;-55
2023/03/13 02:09:47;;;;;;;;;;;;;;;20.35;49.15;99180.53;7255707;19;155074;-54
2023/03/13 02:12:16;;;;;;;;;;;;;;;20.36;49.26;99193.38;7253645;19;154034;-54
2023/03/13 02:14:45;;;;;;;;;;;;;;;20.33;49.46;99202.50;7258705;19;153433;-54
2023/03/13 02:17:12;;;;;;;;;;;;;;;20.32;49.52;99193.25;7254366;19;154090;-53
2023/03/13 02:19:42;;;;;;;;;;;;;;;20.30;49.43;99180.75;7260786;19;154037;-55
2023/03/13 02:22:10;;;;;;;;;;;;;;;20.29;49.61;99182.72;7257439;19;153516;-55
2023/03/13 02:24:38;;;;;;;;;;;;;;;20.26;49.68;99169.38;7257350;19;154897;-54
2023/03/13 02:27:06;;;;;;;;;;;;;;;20.23;49.82;99181.31;7265379;19;155006;-54
2023/03/13 02:29:33;;;;;;;;;;;;;;;20.21;50.05;99163.19;7256711;19;154129;-55
2023/03/13 02:32:00;;;;;;;;;;;;;;;20.20;50.00;99164.34;7254556;19;152968;-55
2023/03/13 02:34:30;;;;;;;;;;;;;;;20.16;49.86;99158.63;7259396;19;153431;-55
2023/03/13 02:36:58;;;;;;;;;;;;;;;20.14;49.92;99158.16;7252676;19;153947;-54
2023/03/13 02:39:26;;;;;;;;;;;;;;;20.14;50.36;99160.97;7253657;19;153689;-55
2023/03/13 02:41:53;;;;;;;;;;;;;;;20.13;50.25;99150.09;7258300;19;154112;-54
2023/03/13 02:44:20;;;;;;;;;;;;;;;20.12;50.34;99149.28;7259995;19;154309;-54
2023/03/13 02:46:51;;;;;;;;;;;;;;;20.11;50.52;99144.03;7255710;19;153403;-55
2023/03/13 02:49:19;;;;;;;;;;;;;;;20.09;50.25;99137.94;7263493;19;154668;-55
2023/03/13 02:51:47;;;;;;;;;;;;;;;20.08;50.45;99131.50;7252536;19;154340;-55
2023/03/13 02:54:16;;;;;;;;;;;;;;;20.06;50.68;99128.25;7253322;19;154333;-54
2023/03/13 02:56:45;;;;;;;;;;;;;;;20.04;50.53;99133.38;7258579;19;153710;-54
2023/03/13 02:59:12;;;;;;;;;;;;;;;20.03;50.69;99114.13;7256353;19;152856;-55
2023/03/13 03:01:39;;;;;;;;;;;;;;;20.03;50.78;99125.34;7259425;19;153520;-56
2023/03/13 03:04:06;;;;;;;;;;;;;;;20.02;51.24;99109.69;7257584;19;154719;-54
2023/03/13 03:06:33;;;;;;;;;;;;;;;20.03;51.27;99122.53;7258950;19;153960;-55
2023/03/13 03:09:00;;;;;;;;;;;;;;;20.01;51.22;99116.44;7254444;19;153777;-55
2023/03/13 03:11:27;;;;;;;;;;;;;;;19.98;51.58;99115.19;7261259;19;153229;-54
2023/03/13 03:13:54;;;;;;;;;;;;;;;19.97;51.36;99093.91;7257273;19;154494;-53
2023/03/13 03:16:21;;;;;;;;;;;;;;;19.95;51.38;99108.25;7258461;19;153151;-54
2023/03/13 03:18:48;;;;;;;;;;;;;;;19.97;51.39;99110.72;7253475;19;153361;-54
2023/03/13 03:21:15;;;;;;;;;;;;;;;19.97;51.25;99105.13;7254641;19;154102;-54
2023/03/13 03:23:42;;;;;;;;;;;;;;;19.95;51.25;99111.06;7250833;19;153351;-55
2023/03/13 03:26:09;;;;;;;;;;;;;;;19.93;51.60;99104.19;7258265;19;157255;-54
2023/03/13 03:28:36;;;;;;;;;;;;;;;19.93;51.77;99101.38;7255377;19;154085;-55
2023/03/13 03:31:04;;;;;;;;;;;;;;;19.92;51.79;99085.72;7255013;19;153328;-54
2023/03/13 03:33:31;;;;;;;;;;;;;;;19.90;51.67;99076.84;7259524;19;153558;-55
2023/03/13 03:35:59;;;;;;;;;;;;;;;19.89;51.51;99081.66;7257501;19;153526;-54
2023/03/13 03:38:26;;;;;;;;;;;;;;;19.86;51.56;99087.94;7251972;19;154550;-54
2023/03/13 03:40:52;;;;;;;;;;;;;;;19.87;51.54;99069.97;7256454;19;153454;-54
2023/03/13 03:43:19;;;;;;;;;;;;;;;19.88;51.55;99082.81;7255232;19;153694;-54
2023/03/13 03:45:46;;;;;;;;;;;;;;;19.86;51.88;99081.50;7255581;19;153060;-55
2023/03/13 03:48:13;;;;;;;;;;;;;;;19.86;51.55;99081.50;7257413;19;153155;-55
2023/03/13 03:50:40;;;;;;;;;;;;;;;19.84;51.83;99075.47;7261527;19;153937;-55
2023/03/13 03:53:08;;;;;;;;;;;;;;;19.83;51.79;99063.41;7256877;19;153771;-55
2023/03/13 03:55:35;;;;;;;;;;;;;;;19.82;52.21;99074.97;7267389;19;153751;-55
2023/03/13 03:58:01;;;;;;;;;;;;;;;19.79;51.98;99068.09;7261678;19;155954;-55
2023/03/13 04:00:28;;;;;;;;;;;;;;;19.78;52.35;99065.63;7262069;19;152818;-55
2023/03/13 04:02:55;;;;;;;;;;;;;;;19.78;52.33;99066.44;7259735;19;154772;-55
2023/03/13 04:05:22;;;;;;;;;;;;;;;19.76;52.16;99082.78;7261222;19;155480;-55
2023/03/13 04:07:49;;;;;;;;;;;;;;;19.79;52.30;99098.09;7260468;19;152687;-55
2023/03/13 04:10:16;;;;;;;;;;;;;;;19.74;52.59;99103.94;7260716;19;153258;-55
2023/03/13 04:12:43;;;;;;;;;;;;;;;19.73;52.42;99085.47;7259807;19;153535;-54
2023/03/13 04:15:10;;;;;;;;;;;;;;;19.69;52.42;99090.97;7262417;19;154114;-55
2023/03/13 04:17:37;;;;;;;;;;;;;;;19.70;52.41;99089.81;7266539;19;153319;-54
2023/03/13 04:20:05;;;;;;;;;;;;;;;19.67;52.47;99092.50;7259109;19;153378;-54
2023/03/13 04:22:32;;;;;;;;;;;;;;;19.67;52.36;99093.28;7259574;19;153674;-55
2023/03/13 04:24:59;;;;;;;;;;;;;;;19.66;52.72;99086.06;7259784;19;154184;-55
2023/03/13 04:27:26;;;;;;;;;;;;;;;19.66;52.35;99072.06;7258968;19;156127;-55
2023/03/13 04:29:53;;;;;;;;;;;;;;;19.65;52.61;99064.81;7261295;19;153334;-55
2023/03/13 04:32:20;;;;;;;;;;;;;;;19.61;52.65;99069.47;7258576;19;153938;-55
2023/03/13 04:34:47;;;;;;;;;;;;;;;19.61;52.65;99071.47;7258208;19;154122;-54
2023/03/13 04:37:14;;;;;;;;;;;;;;;19.60;52.46;99056.63;7268118;19;153783;-55
2023/03/13 04:39:40;;;;;;;;;;;;;;;19.60;52.63;99056.63;7259360;19;153590;-54
2023/03/13 04:42:09;;;;;;;;;;;;;;;19.61;52.59;99049.03;7262610;19;153722;-54
2023/03/13 04:44:36;;;;;;;;;;;;;;;19.59;52.14;99042.97;7258596;19;154272;-54
2023/03/13 04:47:03;;;;;;;;;;;;;;;19.57;52.46;99053.72;7259742;19;153291;-55
2023/03/13 04:49:30;;;;;;;;;;;;;;;19.56;52.32;99024.88;7258135;19;154504;-54
2023/03/13 04:51:57;;;;;;;;;;;;;;;19.55;52.58;99028.84;7259559;19;154506;-55
2023/03/13 04:54:24;;;;;;;;;;;;;;;19.53;52.74;99012.38;7261104;19;153530;-55
2023/03/13 04:56:51;;;;;;;;;;;;;;;19.53;52.32;99014.38;7262378;19;154279;-56
2023/03/13 04:59:17;;;;;;;;;;;;;;;19.52;52.56;99013.56;7265329;19;154001;-54
2023/03/13 05:01:44;;;;;;;;;;;;;;;19.52;52.57;98999.56;7257364;19;153639;-55
2023/03/13 05:04:11;;;;;;;;;;;;;;;19.51;52.45;99002.69;7258489;19;156860;-54
2023/03/13 05:06:38;;;;;;;;;;;;;;;19.49;52.45;98996.59;7260582;19;153493;-55
2023/03/13 05:09:05;;;;;;;;;;;;;;;19.47;52.31;98999.78;7259335;19;153281;-54
2023/03/13 05:11:33;;;;;;;;;;;;;;;19.46;52.57;99006.53;7258427;19;153711;-55
2023/03/13 05:14:00;;;;;;;;;;;;;;;19.46;52.37;99012.16;7260453;19;152686;-55
2023/03/13 05:16:27;;;;;;;;;;;;;;;19.44;52.56;99014.47;7261949;19;154943;-55
2023/03/13 05:18:54;;;;;;;;;;;;;;;19.44;52.63;99016.47;7254911;19;154534;-54
2023/03/13 05:21:21;;;;;;;;;;;;;;;19.40;52.75;98993.06;7269902;19;153522;-55
2023/03/13 05:23:48;;;;;;;;;;;;;;;19.41;52.59;99011.50;7255904;19;153109;-54
2023/03/13 05:26:15;;;;;;;;;;;;;;;19.38;52.40;99018.66;7259008;19;154023;-54
2023/03/13 05:28:42;;;;;;;;;;;;;;;19.34;52.80;99014.09;7259342;19;153757;-55
2023/03/13 05:31:09;;;;;;;;;;;;;;;19.36;52.27;99036.94;7259534;19;155284;-54
2023/03/13 05:33:36;;;;;;;;;;;;;;;19.37;52.56;99019.81;7257756;19;153628;-54
2023/03/13 05:36:03;;;;;;;;;;;;;;;19.42;51.97;99010.34;7259757;19;153928;-53
2023/03/13 05:38:30;;;;;;;;;;;;;;;19.44;52.25;98996.88;7255493;19;153813;-55
2023/03/13 05:40:57;;;;;;;;;;;;;;;19.53;52.23;99006.78;7259985;19;154304;-55
2023/03/13 05:43:24;;;;;;;;;;;;;;;19.60;52.13;99000.59;7267175;19;154018;-54
2023/03/13 05:45:51;;;;;;;;;;;;;;;19.65;51.90;99008.78;7257299;19;154238;-53
2023/03/13 05:48:18;;;;;;;;;;;;;;;19.68;51.95;99002.47;7258420;19;153386;-54
2023/03/13 05:50:46;;;;;;;;;;;;;;;19.72;51.99;99009.00;7258451;19;154067;-55
2023/03/13 05:53:13;;;;;;;;;;;;;;;19.76;51.87;98992.31;7261064;19;153043;-54
2023/03/13 05:55:40;;;;;;;;;;;;;;;19.79;52.17;98997.22;7266100;19;153062;-55
2023/03/13 05:58:07;;;;;;;;;;;;;;;19.83;51.84;98986.94;7272962;19;154106;-55
2023/03/13 06:00:34;;;;;;;;;;;;;;;19.86;52.18;98995.44;7259386;19;152981;-54
2023/03/13 06:03:01;;;;;;;;;;;;;;;19.91;52.19;99002.81;7259322;19;154474;-54
2023/03/13 06:05:28;;;;;;;;;;;;;;;19.95;52.10;99010.16;7263256;19;154784;-55
2023/03/13 06:07:55;;;;;;;;;;;;;;;20.01;51.95;99004.31;7259180;19;154348;-54
2023/03/13 06:10:22;;;;;;;;;;;;;;;20.05;51.79;99006.06;7255061;19;153751;-54
2023/03/13 06:12:52;;;;;;;;;;;;;;;20.09;51.41;99003.38;7255093;19;153816;-54
2023/03/13 06:15:19;;;;;;;;;;;;;;;20.15;51.13;99013.19;7258070;19;153719;-55
2023/03/13 06:17:47;;;;;;;;;;;;;;;20.19;51.31;98998.09;7256846;19;153918;-55
2023/03/13 06:20:14;;;;;;;;;;;;;;;20.23;51.41;98999.03;7255515;19;154075;-54
2023/03/13 06:22:41;;;;;;;;;;;;;;;20.29;51.12;98994.00;7255241;19;153508;-55
2023/03/13 06:25:08;;;;;;;;;;;;;;;20.32;50.87;99010.94;7254007;19;154362;-54
2023/03/13 06:27:35;;;;;;;;;;;;;;;20.37;50.91;98996.69;7262534;19;153516;-55
2023/03/13 06:30:03;;;;;;;;;;;;;;;20.42;50.09;98975.97;7255625;19;153236;-55
2023/03/13 06:32:30;;;;;;;;;;;;;;;20.47;50.28;99017.81;7258658;19;154045;-55
2023/03/13 06:34:58;;;;;;;;;;;;;;;20.51;49.96;98985.06;7255346;19;153506;-54
2023/03/13 06:37:27;;;;;;;;;;;;;;;20.56;49.72;98984.81;7255453;19;153481;-54
2023/03/13 06:39:54;;;;;;;;;;;;;;;20.61;49.77;99012.63;7255570;19;152812;-54
2023/03/13 06:42:21;;;;;;;;;;;;;;;20.65;49.44;98987.47;7255280;19;155678;-55
2023/03/13 06:44:48;;;;;;;;;;;;;;;20.68;48.98;98979.16;7256017;19;154649;-55
2023/03/13 06:47:17;;;;;;;;;;;;;;;20.71;49.05;98970.03;7264369;19;152742;-54
2023/03/13 06:49:44;;;;;;;;;;;;;;;20.74;48.64;98960.88;7256279;19;155065;-55
2023/03/13 06:52:11;;;;;;;;;;;;;;;20.77;48.51;98977.00;7258247;19;154306;-54
2023/03/13 06:54:38;;;;;;;;;;;;;;;20.81;48.11;98949.03;7256022;19;153879;-54
2023/03/13 06:57:05;;;;;;;;;;;;;;;20.83;48.36;98974.75;7256432;19;153827;-55
2023/03/13 06:59:34;;;;;;;;;;;;;;;20.86;48.05;98965.63;7257355;19;152787;-54
2023/03/13 07:02:01;;;;;;;;;;;;;;;20.89;47.90;98969.72;7256885;19;154737;-54
2023/03/13 07:04:28;;;;;;;;;;;;;;;20.91;47.92;98953.31;7256920;19;154169;-55
2023/03/13 07:06:55;;;;;;;;;;;;;;;20.92;47.90;98940.91;7257064;19;153618;-54
2023/03/13 07:09:22;;;;;;;;;;;;;;;20.97;47.91;98955.50;7263846;19;153884;-54
2023/03/13 07:11:49;;;;;;;;;;;;;;;20.98;47.60;98931.88;7256785;19;153759;-54
2023/03/13 07:14:17;;;;;;;;;;;;;;;20.99;47.53;98925.06;7252801;19;155226;-55
2023/03/13 07:16:44;;;;;;;;;;;;;;;21.00;47.58;98943.53;7255983;19;156400;-54
2023/03/13 07:19:12;;;;;;;;;;;;;;;21.02;47.04;98926.34;7253220;19;154443;-54
2023/03/13 07:21:39;;;;;;;;;;;;;;;21.04;47.50;98954.88;7256408;19;152571;-58
2023/03/13 07:24:06;;;;;;;;;;;;;;;20.59;44.81;98927.16;7258350;19;153696;-54
2023/03/13 07:26:33;;;;;;;;;;;;;;;20.57;45.44;98913.50;7265202;19;153711;-56
2023/03/13 07:29:01;;;;;;;;;;;;;;;20.66;44.96;98905.75;7262675;19;152811;-57
2023/03/13 07:31:32;;;;;;;;;;;;;;;20.75;44.42;98914.81;7269356;19;153570;-56
2023/03/13 07:33:59;;;;;;;;;;;;;;;20.80;44.26;98922.16;7259915;19;154516;-56
2023/03/13 07:36:27;;;;;;;;;;;;;;;20.76;44.29;98929.63;7263454;19;154362;-56
2023/03/13 07:38:54;;;;;;;;;;;;;;;20.74;43.84;98915.16;7259886;19;152489;-57
2023/03/13 07:41:21;;;;;;;;;;;;;;;20.71;44.19;98927.13;7263021;19;154105;-56
2023/03/13 07:43:48;;;;;;;;;;;;;;;20.72;43.77;98918.31;7260714;19;154293;-55
2023/03/13 07:46:17;;;;;;;;;;;;;;;20.70;43.58;98915.06;7263400;19;153951;-56
2023/03/13 07:48:45;;;;;;;;;;;;;;;20.66;43.61;98916.97;7259628;19;153549;-57
2023/03/13 07:51:14;;;;;;;;;;;;;;;20.65;43.50;98911.72;7266589;19;154183;-56
2023/03/13 07:53:41;;;;;;;;;;;;;;;20.65;43.45;98911.72;7265331;19;153510;-56
2023/03/13 07:56:10;;;;;;;;;;;;;;;20.57;43.40;98910.72;7264148;19;153663;-56
2023/03/13 07:58:38;;;;;;;;;;;;;;;20.56;43.38;98897.84;7262203;19;153177;-55
2023/03/13 08:01:08;;;;;;;;;;;;;;;20.54;43.19;98897.38;7263460;19;154039;-56
2023/03/13 08:03:36;;;;;;;;;;;;;;;20.54;43.51;98911.41;7261546;19;154348;-56
2023/03/13 08:06:05;;;;;;;;;;;;;;;20.46;43.78;98897.53;7263338;19;153370;-56
2023/03/13 08:08:32;;;;;;;;;;;;;;;20.47;43.46;98897.19;7259712;19;153275;-56
2023/03/13 08:11:01;;;;;;;;;;;;;;;20.41;43.61;98905.03;7260533;19;152936;-56
2023/03/13 08:13:28;;;;;;;;;;;;;;;20.39;43.41;98906.59;7259705;19;153252;-56
2023/03/13 08:15:58;;;;;;;;;;;;;;;20.47;43.42;98902.81;7269045;19;154407;-56
2023/03/13 08:18:25;;;;;;;;;;;;;;;20.48;44.06;98904.44;7260797;19;153472;-56
2023/03/13 08:20:53;;;;;;;;;;;;;;;20.51;44.44;98889.69;7260941;19;153180;-56
2023/03/13 08:23:20;;;;;;;;;;;;;;;20.52;44.43;98910.97;7259010;19;153480;-56
2023/03/13 08:25:47;;;;;;;;;;;;;;;20.48;44.66;98910.06;7257896;19;153012;-57
2023/03/13 08:28:14;;;;;;;;;;;;;;;20.44;44.36;98911.13;7256477;19;152675;-57
2023/03/13 08:30:41;;;;;;;;;;;;;;;20.39;44.23;98907.41;7257867;19;153283;-57
2023/03/13 08:33:08;;;;;;;;;;;;;;;20.35;44.07;98925.31;7256317;19;153513;-57
2023/03/13 08:35:35;;;;;;;;;;;;;;;20.34;43.90;98896.44;7259904;19;153602;-56
2023/03/13 08:38:03;;;;;;;;;;;;;;;20.34;43.57;98901.22;7270068;19;153972;-58
2023/03/13 08:40:30;;;;;;;;;;;;;;;20.31;43.96;98897.13;7263433;19;153570;-57
2023/03/13 08:42:57;;;;;;;;;;;;;;;20.25;43.55;98900.53;7263115;19;153675;-56
2023/03/13 08:45:24;;;;;;;;;;;;;;;20.21;43.62;98927.66;7262787;19;154026;-56
2023/03/13 08:47:52;;;;;;;;;;;;;;;20.20;43.52;98893.19;7254484;19;153549;-57
2023/03/13 08:50:20;;;;;;;;;;;;;;;20.12;43.73;98898.94;7259459;19;154698;-55
2023/03/13 08:52:47;;;;;;;;;;;;;;;20.13;43.80;98894.94;7254718;19;154206;-57
2023/03/13 08:55:14;;;;;;;;;;;;;;;20.08;43.99;98912.03;7255821;19;155369;-57
2023/03/13 08:57:41;;;;;;;;;;;;;;;20.05;43.98;98871.50;7265011;19;153293;-56
2023/03/13 09:00:10;;;;;;;;;;;;;;;20.04;43.75;98878.28;7263162;19;153401;-56
2023/03/13 09:02:37;;;;;;;;;;;;;;;20.02;43.69;98882.63;7258570;19;153665;-57
2023/03/13 09:05:04;;;;;;;;;;;;;;;19.99;43.92;98875.72;7262255;19;153856;-56
2023/03/13 09:07:31;;;;;;;;;;;;;;;19.98;43.75;98874.94;7262171;19;155285;-56
2023/03/13 09:09:59;;;;;;;;;;;;;;;19.97;43.90;98866.88;7257516;19;154270;-54
2023/03/13 09:12:26;;;;;;;;;;;;;;;19.95;44.12;98860.78;7259465;19;152718;-55
2023/03/13 09:14:57;;;;;;;;;;;;;;;19.92;43.92;98853.91;7259188;19;154021;-55
2023/03/13 09:17:25;;;;;;;;;;;;;;;19.90;44.06;98863.84;7245190;19;154753;-55
2023/03/13 09:19:53;;;;;;;;;;;;;;;19.89;44.50;98856.63;7262032;19;153546;-54
2023/03/13 09:22:26;;;;;;;;;;;;;;;19.90;44.48;98880.66;7259758;19;153555;-55
2023/03/13 09:24:54;;;;;;;;;;;;;;;19.86;44.31;98869.34;7260961;19;154602;-57
2023/03/13 09:27:21;;;;;;;;;;;;;;;19.84;44.54;98846.47;7257583;19;153752;-55
2023/03/13 09:29:48;;;;;;;;;;;;;;;19.81;44.85;98849.97;7257567;19;153451;-57
2023/03/13 09:32:16;;;;;;;;;;;;;;;19.79;44.38;98841.13;7257250;19;153655;-57
2023/03/13 09:34:43;;;;;;;;;;;;;;;19.77;44.83;98848.22;7257457;19;153531;-57
2023/03/13 09:37:10;;;;;;;;;;;;;;;19.76;44.57;98858.63;7255468;19;153304;-56
2023/03/13 09:39:37;;;;;;;;;;;;;;;19.74;44.86;98846.97;7256071;19;153191;-56
2023/03/13 09:42:08;;;;;;;;;;;;;;;19.74;44.87;98844.16;7263861;19;153722;-56
2023/03/13 09:44:39;;;;;;;;;;;;;;;19.76;44.55;98849.44;7256199;19;154061;-56
2023/03/13 09:47:09;;;;;;;;;;;;;;;19.74;44.87;98849.78;7254901;19;153217;-57
2023/03/13 09:49:39;;;;;;;;;;;;;;;19.70;45.12;98857.25;7257224;19;154024;-55
2023/03/13 09:52:10;;;;;;;;;;;;;;;19.70;45.08;98850.81;7261557;19;153165;-56
2023/03/13 09:54:38;;;;;;;;;;;;;;;19.66;45.16;98861.94;7255175;19;154799;-56
2023/03/13 09:57:14;;;;;;;;;;;;;;;19.65;44.88;98862.28;7256841;19;153799;-57
2023/03/13 09:59:47;;;;;;;;;;;;;;;19.64;44.78;98874.66;7258502;19;153297;-56
2023/03/13 10:02:17;;;;;;;;;;;;;;;19.62;44.95;98869.41;7260292;19;153959;-56
2023/03/13 10:04:47;;;;;;;;;;;;;;;19.57;45.01;98889.25;7264844;19;155140;-56
2023/03/13 10:07:15;;;;;;;;;;;;;;;19.54;44.67;98873.13;7257204;19;155019;-56
2023/03/13 10:09:42;;;;;;;;;;;;;;;19.53;44.69;98872.31;7257829;19;154372;-56
2023/03/13 10:12:12;;;;;;;;;;;;;;;19.53;44.75;98883.53;7260914;19;153714;-56
2023/03/13 10:14:41;;;;;;;;;;;;;;;19.50;44.71;98875.84;7258015;19;152998;-56
2023/03/13 10:17:09;;;;;;;;;;;;;;;19.47;44.80;98884.94;7257703;19;153440;-57
2023/03/13 10:19:41;;;;;;;;;;;;;;;19.46;44.55;98876.88;7258304;19;153000;-56
2023/03/13 10:22:12;;;;;;;;;;;;;;;19.46;44.76;98872.09;7257899;19;153687;-56
2023/03/13 10:24:47;;;;;;;;;;;;;;;19.47;44.59;98867.31;7254156;19;155440;-56
2023/03/13 10:27:15;;;;;;;;;;;;;;;19.45;44.69;98870.47;7265255;19;153487;-56
2023/03/13 10:29:42;;;;;;;;;;;;;;;19.45;44.77;98880.84;7256624;19;153741;-57
2023/03/13 10:32:13;;;;;;;;;;;;;;;19.45;44.62;98864.88;7256770;19;153998;-56
2023/03/13 10:34:43;;;;;;;;;;;;;;;19.42;44.71;98890.75;7252384;19;155637;-56
2023/03/13 10:37:13;;;;;;;;;;;;;;;19.43;44.70;98891.56;7257350;19;156262;-56
2023/03/13 10:39:41;;;;;;;;;;;;;;;19.39;44.87;98899.06;7255826;19;152763;-57
2023/03/13 10:42:10;;;;;;;;;;;;;;;19.39;44.81;98897.06;7257515;19;152764;-56
2023/03/13 10:44:37;;;;;;;;;;;;;;;19.39;44.94;98894.28;7253983;19;152838;-57
2023/03/13 10:47:05;;;;;;;;;;;;;;;19.42;44.50;98892.75;7264361;19;152709;-57
2023/03/13 10:49:32;;;;;;;;;;;;;;;19.43;44.49;98914.81;7251967;19;153446;-56
2023/03/13 10:52:01;;;;;;;;;;;;;;;19.47;44.58;98895.34;7253894;19;154023;-56
2023/03/13 10:54:30;;;;;;;;;;;;;;;19.50;44.12;98917.84;7251733;19;153266;-56
2023/03/13 10:57:00;;;;;;;;;;;;;;;19.50;44.35;98889.03;7253482;19;154264;-56
2023/03/13 10:59:28;;;;;;;;;;;;;;;19.52;43.90;98892.31;7256746;19;152818;-57
2023/03/13 11:01:59;;;;;;;;;;;;;;;19.54;43.86;98885.16;7259135;19;153795;-56
2023/03/13 11:04:29;;;;;;;;;;;;;;;19.59;43.81;98894.50;7255302;19;152424;-56
2023/03/13 11:06:59;;;;;;;;;;;;;;;19.58;44.14;98873.28;7253736;19;152891;-56
2023/03/13 11:09:27;;;;;;;;;;;;;;;19.60;43.88;98893.31;7264041;19;154224;-56
2023/03/13 11:11:55;;;;;;;;;;;;;;;19.60;44.03;98891.34;7259920;19;154071;-56
2023/03/13 11:14:23;;;;;;;;;;;;;;;19.65;43.78;98887.50;7255090;19;153223;-56
2023/03/13 11:16:53;;;;;;;;;;;;;;;19.66;43.92;98889.94;7252623;19;153998;-57
2023/03/13 11:19:23;;;;;;;;;;;;;;;19.66;43.46;98900.34;7254901;19;152573;-56
2023/03/13 11:21:52;;;;;;;;;;;;;;;19.65;43.62;98890.28;7254853;19;154455;-56
2023/03/13 11:24:27;;;;;;;;;;;;;;;19.68;43.48;98878.38;7239894;19;154422;-56
2023/03/13 11:26:58;;;;;;;;;;;;;;;19.68;43.44;98897.97;7256746;19;153501;-57
2023/03/13 11:29:33;;;;;;;;;;;;;;;19.66;43.31;98887.16;7254607;19;153695;-56
2023/03/13 11:32:04;;;;;;;;;;;;;;;19.68;43.74;98876.38;7259467;19;154960;-56
2023/03/13 11:34:39;;;;;;;;;;;;;;;19.66;43.38;98884.34;7252643;19;154096;-56
2023/03/13 11:37:10;;;;;;;;;;;;;;;19.69;43.44;98892.03;7252555;19;153554;-55
2023/03/13 11:39:40;;;;;;;;;;;;;;;19.71;43.37;98874.88;7251527;19;152804;-55
2023/03/13 11:42:11;;;;;;;;;;;;;;;19.71;43.31;98867.28;7252139;19;154005;-55
2023/03/13 11:44:55;;;;;;;;;;;;;;;19.75;43.14;98861.78;7256307;19;153993;-56
2023/03/13 11:47:27;;;;;;;;;;;;;;;19.76;42.86;98846.63;7253530;19;154077;-54
2023/03/13 11:49:58;;;;;;;;;;;;;;;19.77;42.94;98849.06;7252682;19;153017;-55
2023/03/13 11:52:28;;;;;;;;;;;;;;;19.77;42.95;98835.03;7252241;19;156267;-56
2023/03/13 11:54:57;;;;;;;;;;;;;;;19.75;43.03;98865.41;7260574;19;152233;-55
2023/03/13 11:57:29;;;;;;;;;;;;;;;19.79;42.78;98841.13;7252737;19;156634;-55
2023/03/13 11:59:59;;;;;;;;;;;;;;;19.77;42.83;98848.22;7251401;19;153273;-55
2023/03/13 12:02:30;;;;;;;;;;;;;;;19.73;42.68;98842.53;7254377;19;155914;-56
2023/03/13 12:05:00;;;;;;;;;;;;;;;19.75;42.64;98826.19;7252036;19;156418;-55
2023/03/13 12:07:31;;;;;;;;;;;;;;;19.72;42.60;98838.09;7253048;19;152664;-55
2023/03/13 12:10:01;;;;;;;;;;;;;;;19.72;43.01;98826.06;7258516;19;154484;-55
2023/03/13 12:12:31;;;;;;;;;;;;;;;19.73;42.96;98841.69;7262562;19;154590;-54
2023/03/13 12:15:05;;;;;;;;;;;;;;;19.72;43.04;98840.88;7260247;19;153119;-55
2023/03/13 12:17:33;;;;;;;;;;;;;;;19.71;42.73;98825.28;7265562;19;153056;-56
2023/03/13 12:20:08;;;;;;;;;;;;;;;19.74;42.87;98823.72;7260758;19;152978;-56
2023/03/13 12:22:38;;;;;;;;;;;;;;;19.71;42.86;98827.25;7262395;19;154026;-55
2023/03/13 12:25:12;;;;;;;;;;;;;;;19.71;42.83;98828.06;7251827;19;154526;-55
2023/03/13 12:27:43;;;;;;;;;;;;;;;19.69;42.61;98822.00;7260798;19;154546;-55
2023/03/13 12:30:19;;;;;;;;;;;;;;;19.68;42.63;98816.72;7258461;19;154363;-55
2023/03/13 12:32:53;;;;;;;;;;;;;;;19.66;42.99;98803.09;7258321;19;154684;-56
2023/03/13 12:38:01;;;;;;;;;;;;;;;19.63;42.74;98791.75;7259482;19;153306;-56
2023/03/13 12:40:48;;;;;;;;;;;;;;;19.63;43.09;98788.97;7264209;19;153144;-55
2023/03/13 12:43:20;;;;;;;;;;;;;;;19.61;42.95;98803.34;7259710;19;153181;-55